sensor_id;sensor_type;location;lat;lon;timestamp;noise_LAeq;noise_LA_min;noise_LA_max;noise_LA01;noise_LA95
67318;Laerm;57664;51.436;5.980;2023-08-06T00:00:10;31.48;30.64;32.34;;
67318;Laerm;57664;51.436;5.980;2023-08-06T00:00:21;31.45;30.55;32.29;;
67318;Laerm;57664;51.436;5.980;2023-08-06T00:00:31;31.47;30.34;32.27;;
67318;Laerm;57664;51.436;5.980;2023-08-06T00:00:42;31.46;30.51;32.26;;
67318;Laerm;57664;51.436;5.980;2023-08-06T00:00:52;31.46;30.58;32.22;;
67318;Laerm;57664;51.436;5.980;2023-08-06T00:01:02;31.48;30.49;32.13;;
67318;Laerm;57664;51.436;5.980;2023-08-06T00:01:13;31.48;30.45;32.32;;
67318;Laerm;57664;51.436;5.980;2023-08-06T00:01:24;31.45;30.60;32.52;;
67318;Laerm;57664;51.436;5.980;2023-08-06T00:01:35;31.47;30.57;32.26;;
67318;Laerm;57664;51.436;5.980;2023-08-06T00:01:46;31.48;30.60;32.41;;
67318;Laerm;57664;51.436;5.980;2023-08-06T00:01:56;31.49;30.57;32.20;;
67318;Laerm;57664;51.436;5.980;2023-08-06T00:02:07;31.48;30.69;32.41;;
67318;Laerm;57664;51.436;5.980;2023-08-06T00:02:17;31.49;30.54;32.60;;
67318;Laerm;57664;51.436;5.980;2023-08-06T00:02:27;31.43;30.43;32.43;;
67318;Laerm;57664;51.436;5.980;2023-08-06T00:02:38;31.48;30.58;32.35;;
67318;Laerm;57664;51.436;5.980;2023-08-06T00:02:48;31.47;30.35;32.41;;
67318;Laerm;57664;51.436;5.980;2023-08-06T00:02:59;31.46;30.52;32.31;;
67318;Laerm;57664;51.436;5.980;2023-08-06T00:03:23;31.46;30.60;32.33;;
67318;Laerm;57664;51.436;5.980;2023-08-06T00:03:33;31.47;30.64;32.26;;
67318;Laerm;57664;51.436;5.980;2023-08-06T00:03:43;31.46;30.43;32.37;;
67318;Laerm;57664;51.436;5.980;2023-08-06T00:03:54;31.44;30.59;32.44;;
67318;Laerm;57664;51.436;5.980;2023-08-06T00:04:04;31.46;30.44;32.25;;
67318;Laerm;57664;51.436;5.980;2023-08-06T00:04:15;31.46;30.73;32.40;;
67318;Laerm;57664;51.436;5.980;2023-08-06T00:04:25;31.46;30.53;32.34;;
67318;Laerm;57664;51.436;5.980;2023-08-06T00:04:36;31.44;30.62;32.12;;
67318;Laerm;57664;51.436;5.980;2023-08-06T00:04:46;31.47;30.54;32.24;;
67318;Laerm;57664;51.436;5.980;2023-08-06T00:04:57;31.48;30.74;32.59;;
67318;Laerm;57664;51.436;5.980;2023-08-06T00:05:07;31.50;30.36;32.23;;
67318;Laerm;57664;51.436;5.980;2023-08-06T00:05:18;31.43;30.56;32.22;;
67318;Laerm;57664;51.436;5.980;2023-08-06T00:05:30;31.46;30.41;32.38;;
67318;Laerm;57664;51.436;5.980;2023-08-06T00:05:41;31.44;30.55;32.80;;
67318;Laerm;57664;51.436;5.980;2023-08-06T00:05:53;31.45;30.34;32.43;;
67318;Laerm;57664;51.436;5.980;2023-08-06T00:06:06;31.44;30.47;32.24;;
67318;Laerm;57664;51.436;5.980;2023-08-06T00:06:16;31.45;30.60;32.31;;
67318;Laerm;57664;51.436;5.980;2023-08-06T00:06:27;31.44;30.60;32.38;;
67318;Laerm;57664;51.436;5.980;2023-08-06T00:06:37;31.42;30.58;32.26;;
67318;Laerm;57664;51.436;5.980;2023-08-06T00:06:47;31.49;30.72;32.52;;
67318;Laerm;57664;51.436;5.980;2023-08-06T00:06:58;31.40;30.37;32.15;;
67318;Laerm;57664;51.436;5.980;2023-08-06T00:07:08;31.47;30.45;32.26;;
67318;Laerm;57664;51.436;5.980;2023-08-06T00:07:18;31.44;30.56;32.31;;
67318;Laerm;57664;51.436;5.980;2023-08-06T00:07:29;31.45;30.65;32.47;;
67318;Laerm;57664;51.436;5.980;2023-08-06T00:07:39;31.43;30.57;32.24;;
67318;Laerm;57664;51.436;5.980;2023-08-06T00:07:50;31.45;30.47;32.22;;
67318;Laerm;57664;51.436;5.980;2023-08-06T00:08:00;31.44;30.59;32.32;;
67318;Laerm;57664;51.436;5.980;2023-08-06T00:08:12;31.42;30.40;32.23;;
67318;Laerm;57664;51.436;5.980;2023-08-06T00:08:22;31.45;30.55;32.41;;
67318;Laerm;57664;51.436;5.980;2023-08-06T00:08:32;31.43;30.48;32.38;;
67318;Laerm;57664;51.436;5.980;2023-08-06T00:08:42;31.43;30.48;32.29;;
67318;Laerm;57664;51.436;5.980;2023-08-06T00:08:53;31.47;30.71;32.30;;
67318;Laerm;57664;51.436;5.980;2023-08-06T00:09:05;31.44;30.36;32.47;;
67318;Laerm;57664;51.436;5.980;2023-08-06T00:09:15;31.41;30.16;32.52;;
67318;Laerm;57664;51.436;5.980;2023-08-06T00:09:25;31.44;30.24;32.61;;
67318;Laerm;57664;51.436;5.980;2023-08-06T00:09:35;31.44;30.42;32.31;;
67318;Laerm;57664;51.436;5.980;2023-08-06T00:09:46;31.46;30.68;32.22;;
67318;Laerm;57664;51.436;5.980;2023-08-06T00:09:56;31.46;30.44;32.27;;
67318;Laerm;57664;51.436;5.980;2023-08-06T00:10:06;31.42;30.40;32.31;;
67318;Laerm;57664;51.436;5.980;2023-08-06T00:10:18;31.42;30.59;32.24;;
67318;Laerm;57664;51.436;5.980;2023-08-06T00:10:28;31.47;30.68;32.65;;
67318;Laerm;57664;51.436;5.980;2023-08-06T00:10:39;31.42;30.45;32.20;;
67318;Laerm;57664;51.436;5.980;2023-08-06T00:10:49;31.43;30.48;32.71;;
67318;Laerm;57664;51.436;5.980;2023-08-06T00:11:00;31.44;30.41;32.33;;
67318;Laerm;57664;51.436;5.980;2023-08-06T00:11:10;31.44;30.44;32.44;;
67318;Laerm;57664;51.436;5.980;2023-08-06T00:11:32;31.42;30.54;32.65;;
67318;Laerm;57664;51.436;5.980;2023-08-06T00:11:42;31.44;30.40;32.42;;
67318;Laerm;57664;51.436;5.980;2023-08-06T00:11:54;31.44;30.59;32.49;;
67318;Laerm;57664;51.436;5.980;2023-08-06T00:12:04;31.44;30.38;32.58;;
67318;Laerm;57664;51.436;5.980;2023-08-06T00:12:31;31.40;30.40;32.38;;
67318;Laerm;57664;51.436;5.980;2023-08-06T00:12:42;31.46;30.34;32.57;;
67318;Laerm;57664;51.436;5.980;2023-08-06T00:12:53;31.45;30.65;32.32;;
67318;Laerm;57664;51.436;5.980;2023-08-06T00:13:03;31.40;30.57;32.54;;
67318;Laerm;57664;51.436;5.980;2023-08-06T00:13:19;31.40;30.46;32.10;;
67318;Laerm;57664;51.436;5.980;2023-08-06T00:13:30;31.43;30.33;32.30;;
67318;Laerm;57664;51.436;5.980;2023-08-06T00:13:40;31.47;30.51;32.29;;
67318;Laerm;57664;51.436;5.980;2023-08-06T00:13:51;31.45;30.60;32.35;;
67318;Laerm;57664;51.436;5.980;2023-08-06T00:14:01;31.42;30.30;32.13;;
67318;Laerm;57664;51.436;5.980;2023-08-06T00:14:12;31.44;30.41;32.36;;
67318;Laerm;57664;51.436;5.980;2023-08-06T00:14:22;31.45;30.53;32.46;;
67318;Laerm;57664;51.436;5.980;2023-08-06T00:15:48;31.44;30.45;32.45;;
67318;Laerm;57664;51.436;5.980;2023-08-06T00:16:11;31.45;30.55;32.43;;
67318;Laerm;57664;51.436;5.980;2023-08-06T00:16:22;31.44;30.44;32.38;;
67318;Laerm;57664;51.436;5.980;2023-08-06T00:16:32;31.44;30.42;32.71;;
67318;Laerm;57664;51.436;5.980;2023-08-06T00:16:43;31.45;30.47;32.25;;
67318;Laerm;57664;51.436;5.980;2023-08-06T00:16:54;31.41;30.27;32.27;;
67318;Laerm;57664;51.436;5.980;2023-08-06T00:17:04;31.41;30.56;32.30;;
67318;Laerm;57664;51.436;5.980;2023-08-06T00:17:15;31.44;30.58;32.42;;
67318;Laerm;57664;51.436;5.980;2023-08-06T00:17:43;31.45;30.40;32.50;;
67318;Laerm;57664;51.436;5.980;2023-08-06T00:17:53;31.43;30.39;32.34;;
67318;Laerm;57664;51.436;5.980;2023-08-06T00:18:04;31.44;30.21;32.32;;
67318;Laerm;57664;51.436;5.980;2023-08-06T00:18:14;31.43;30.66;32.31;;
67318;Laerm;57664;51.436;5.980;2023-08-06T00:18:24;31.42;30.45;32.18;;
67318;Laerm;57664;51.436;5.980;2023-08-06T00:18:35;31.43;30.68;32.43;;
67318;Laerm;57664;51.436;5.980;2023-08-06T00:18:48;31.42;30.22;32.37;;
67318;Laerm;57664;51.436;5.980;2023-08-06T00:18:58;31.39;30.51;32.11;;
67318;Laerm;57664;51.436;5.980;2023-08-06T00:19:09;31.47;30.58;32.16;;
67318;Laerm;57664;51.436;5.980;2023-08-06T00:19:19;31.44;30.54;32.39;;
67318;Laerm;57664;51.436;5.980;2023-08-06T00:19:38;31.40;30.41;32.16;;
67318;Laerm;57664;51.436;5.980;2023-08-06T00:19:48;31.43;30.49;32.65;;
67318;Laerm;57664;51.436;5.980;2023-08-06T00:19:59;31.45;30.55;32.28;;
67318;Laerm;57664;51.436;5.980;2023-08-06T00:20:17;31.43;30.61;32.43;;
67318;Laerm;57664;51.436;5.980;2023-08-06T00:20:28;31.41;30.51;32.24;;
67318;Laerm;57664;51.436;5.980;2023-08-06T00:20:38;31.43;30.21;32.39;;
67318;Laerm;57664;51.436;5.980;2023-08-06T00:20:49;31.42;30.44;32.82;;
67318;Laerm;57664;51.436;5.980;2023-08-06T00:20:59;31.41;30.38;32.43;;
67318;Laerm;57664;51.436;5.980;2023-08-06T00:21:43;31.42;30.64;32.34;;
67318;Laerm;57664;51.436;5.980;2023-08-06T00:21:53;31.44;30.44;32.55;;
67318;Laerm;57664;51.436;5.980;2023-08-06T00:22:04;31.39;30.46;32.14;;
67318;Laerm;57664;51.436;5.980;2023-08-06T00:22:14;31.42;30.60;32.39;;
67318;Laerm;57664;51.436;5.980;2023-08-06T00:22:26;31.42;30.42;32.45;;
67318;Laerm;57664;51.436;5.980;2023-08-06T00:22:37;31.39;30.40;32.28;;
67318;Laerm;57664;51.436;5.980;2023-08-06T00:22:47;31.41;30.60;32.26;;
67318;Laerm;57664;51.436;5.980;2023-08-06T00:22:58;31.39;30.18;32.19;;
67318;Laerm;57664;51.436;5.980;2023-08-06T00:23:08;31.42;30.58;32.46;;
67318;Laerm;57664;51.436;5.980;2023-08-06T00:23:18;31.38;30.49;32.36;;
67318;Laerm;57664;51.436;5.980;2023-08-06T00:23:31;31.41;30.46;32.44;;
67318;Laerm;57664;51.436;5.980;2023-08-06T00:23:42;31.39;30.41;32.35;;
67318;Laerm;57664;51.436;5.980;2023-08-06T00:23:53;31.42;30.53;32.54;;
67318;Laerm;57664;51.436;5.980;2023-08-06T00:24:03;31.41;30.35;32.36;;
67318;Laerm;57664;51.436;5.980;2023-08-06T00:24:13;31.42;30.68;32.23;;
67318;Laerm;57664;51.436;5.980;2023-08-06T00:24:24;31.36;30.54;32.22;;
67318;Laerm;57664;51.436;5.980;2023-08-06T00:24:34;31.41;30.54;32.26;;
67318;Laerm;57664;51.436;5.980;2023-08-06T00:24:45;31.38;30.29;32.52;;
67318;Laerm;57664;51.436;5.980;2023-08-06T00:24:55;31.40;30.56;32.48;;
67318;Laerm;57664;51.436;5.980;2023-08-06T00:25:07;31.39;30.38;32.30;;
67318;Laerm;57664;51.436;5.980;2023-08-06T00:25:18;31.40;30.53;32.39;;
67318;Laerm;57664;51.436;5.980;2023-08-06T00:25:28;31.41;30.37;32.23;;
67318;Laerm;57664;51.436;5.980;2023-08-06T00:25:38;31.43;30.48;32.35;;
67318;Laerm;57664;51.436;5.980;2023-08-06T00:25:49;31.39;30.49;32.27;;
67318;Laerm;57664;51.436;5.980;2023-08-06T00:25:59;31.39;30.31;32.22;;
67318;Laerm;57664;51.436;5.980;2023-08-06T00:26:09;31.40;30.54;32.50;;
67318;Laerm;57664;51.436;5.980;2023-08-06T00:26:20;31.37;30.15;32.40;;
67318;Laerm;57664;51.436;5.980;2023-08-06T00:26:30;31.39;30.61;32.19;;
67318;Laerm;57664;51.436;5.980;2023-08-06T00:26:40;31.39;30.37;32.27;;
67318;Laerm;57664;51.436;5.980;2023-08-06T00:26:50;31.37;30.74;32.12;;
67318;Laerm;57664;51.436;5.980;2023-08-06T00:27:01;31.38;30.46;32.26;;
67318;Laerm;57664;51.436;5.980;2023-08-06T00:27:12;31.40;30.57;32.32;;
67318;Laerm;57664;51.436;5.980;2023-08-06T00:27:22;31.39;30.48;32.42;;
67318;Laerm;57664;51.436;5.980;2023-08-06T00:27:32;31.37;30.58;32.37;;
67318;Laerm;57664;51.436;5.980;2023-08-06T00:27:42;31.39;30.69;32.42;;
67318;Laerm;57664;51.436;5.980;2023-08-06T00:27:53;31.38;30.55;32.29;;
67318;Laerm;57664;51.436;5.980;2023-08-06T00:28:03;31.37;30.37;32.08;;
67318;Laerm;57664;51.436;5.980;2023-08-06T00:28:13;31.39;30.31;32.26;;
67318;Laerm;57664;51.436;5.980;2023-08-06T00:28:24;31.38;30.54;32.50;;
67318;Laerm;57664;51.436;5.980;2023-08-06T00:28:34;31.37;30.38;32.27;;
67318;Laerm;57664;51.436;5.980;2023-08-06T00:28:44;31.35;30.42;32.10;;
67318;Laerm;57664;51.436;5.980;2023-08-06T00:28:55;31.39;30.51;32.25;;
67318;Laerm;57664;51.436;5.980;2023-08-06T00:29:05;31.38;30.61;32.33;;
67318;Laerm;57664;51.436;5.980;2023-08-06T00:29:15;31.37;30.52;32.15;;
67318;Laerm;57664;51.436;5.980;2023-08-06T00:29:26;31.36;30.37;32.25;;
67318;Laerm;57664;51.436;5.980;2023-08-06T00:29:36;31.38;30.40;32.30;;
67318;Laerm;57664;51.436;5.980;2023-08-06T00:29:47;31.37;30.50;32.25;;
67318;Laerm;57664;51.436;5.980;2023-08-06T00:29:57;31.37;30.51;32.17;;
67318;Laerm;57664;51.436;5.980;2023-08-06T00:30:08;31.38;30.41;32.33;;
67318;Laerm;57664;51.436;5.980;2023-08-06T00:30:18;31.36;30.37;32.02;;
67318;Laerm;57664;51.436;5.980;2023-08-06T00:30:28;31.40;30.45;32.16;;
67318;Laerm;57664;51.436;5.980;2023-08-06T00:30:39;31.37;30.11;32.28;;
67318;Laerm;57664;51.436;5.980;2023-08-06T00:30:53;31.38;30.37;32.28;;
67318;Laerm;57664;51.436;5.980;2023-08-06T00:31:04;31.34;30.25;32.38;;
67318;Laerm;57664;51.436;5.980;2023-08-06T00:31:14;31.34;30.40;32.25;;
67318;Laerm;57664;51.436;5.980;2023-08-06T00:31:25;31.34;30.35;32.29;;
67318;Laerm;57664;51.436;5.980;2023-08-06T00:31:35;31.39;30.60;32.38;;
67318;Laerm;57664;51.436;5.980;2023-08-06T00:31:45;31.38;30.44;32.25;;
67318;Laerm;57664;51.436;5.980;2023-08-06T00:31:56;31.37;30.33;32.17;;
67318;Laerm;57664;51.436;5.980;2023-08-06T00:32:06;31.32;30.43;32.28;;
67318;Laerm;57664;51.436;5.980;2023-08-06T00:32:17;31.36;30.51;32.15;;
67318;Laerm;57664;51.436;5.980;2023-08-06T00:32:27;31.39;30.38;32.24;;
67318;Laerm;57664;51.436;5.980;2023-08-06T00:32:38;31.36;30.36;32.33;;
67318;Laerm;57664;51.436;5.980;2023-08-06T00:32:48;31.35;30.48;32.30;;
67318;Laerm;57664;51.436;5.980;2023-08-06T00:32:59;31.36;30.54;32.40;;
67318;Laerm;57664;51.436;5.980;2023-08-06T00:33:09;31.32;30.49;32.22;;
67318;Laerm;57664;51.436;5.980;2023-08-06T00:33:20;31.36;30.63;32.28;;
67318;Laerm;57664;51.436;5.980;2023-08-06T00:33:31;31.34;30.44;32.70;;
67318;Laerm;57664;51.436;5.980;2023-08-06T00:33:41;31.34;30.32;32.34;;
67318;Laerm;57664;51.436;5.980;2023-08-06T00:33:52;31.34;30.63;32.24;;
67318;Laerm;57664;51.436;5.980;2023-08-06T00:34:02;31.35;30.61;32.18;;
67318;Laerm;57664;51.436;5.980;2023-08-06T00:34:12;31.31;30.40;32.21;;
67318;Laerm;57664;51.436;5.980;2023-08-06T00:34:23;31.31;30.52;32.18;;
67318;Laerm;57664;51.436;5.980;2023-08-06T00:34:33;31.37;30.39;32.22;;
67318;Laerm;57664;51.436;5.980;2023-08-06T00:34:44;31.34;30.02;32.24;;
67318;Laerm;57664;51.436;5.980;2023-08-06T00:34:57;31.35;30.17;32.24;;
67318;Laerm;57664;51.436;5.980;2023-08-06T00:35:07;31.34;30.53;32.24;;
67318;Laerm;57664;51.436;5.980;2023-08-06T00:35:18;31.35;30.30;32.45;;
67318;Laerm;57664;51.436;5.980;2023-08-06T00:35:29;31.34;30.20;32.27;;
67318;Laerm;57664;51.436;5.980;2023-08-06T00:35:39;31.34;30.31;32.15;;
67318;Laerm;57664;51.436;5.980;2023-08-06T00:35:50;31.31;30.28;32.39;;
67318;Laerm;57664;51.436;5.980;2023-08-06T00:36:00;31.34;30.45;32.14;;
67318;Laerm;57664;51.436;5.980;2023-08-06T00:36:11;31.33;30.40;32.09;;
67318;Laerm;57664;51.436;5.980;2023-08-06T00:36:22;31.32;30.61;32.24;;
67318;Laerm;57664;51.436;5.980;2023-08-06T00:36:33;31.33;30.23;32.19;;
67318;Laerm;57664;51.436;5.980;2023-08-06T00:36:43;31.31;30.38;32.14;;
67318;Laerm;57664;51.436;5.980;2023-08-06T00:36:53;31.31;30.35;32.28;;
67318;Laerm;57664;51.436;5.980;2023-08-06T00:37:04;31.30;30.28;32.10;;
67318;Laerm;57664;51.436;5.980;2023-08-06T00:37:17;31.29;30.22;32.06;;
67318;Laerm;57664;51.436;5.980;2023-08-06T00:37:28;31.30;30.39;32.14;;
67318;Laerm;57664;51.436;5.980;2023-08-06T00:37:38;31.35;30.38;32.19;;
67318;Laerm;57664;51.436;5.980;2023-08-06T00:37:49;31.31;30.45;32.33;;
67318;Laerm;57664;51.436;5.980;2023-08-06T00:37:59;31.31;30.33;32.25;;
67318;Laerm;57664;51.436;5.980;2023-08-06T00:38:09;31.30;30.39;32.25;;
67318;Laerm;57664;51.436;5.980;2023-08-06T00:38:20;31.28;30.20;32.26;;
67318;Laerm;57664;51.436;5.980;2023-08-06T00:38:30;31.28;30.31;32.00;;
67318;Laerm;57664;51.436;5.980;2023-08-06T00:38:41;31.29;30.27;32.26;;
67318;Laerm;57664;51.436;5.980;2023-08-06T00:38:51;31.28;30.47;32.13;;
67318;Laerm;57664;51.436;5.980;2023-08-06T00:39:02;31.30;30.41;32.27;;
67318;Laerm;57664;51.436;5.980;2023-08-06T00:39:12;31.32;30.35;32.18;;
67318;Laerm;57664;51.436;5.980;2023-08-06T00:39:23;31.32;30.11;32.27;;
67318;Laerm;57664;51.436;5.980;2023-08-06T00:39:33;31.30;30.35;32.34;;
67318;Laerm;57664;51.436;5.980;2023-08-06T00:39:44;31.30;30.19;32.14;;
67318;Laerm;57664;51.436;5.980;2023-08-06T00:39:54;31.32;30.36;32.23;;
67318;Laerm;57664;51.436;5.980;2023-08-06T00:40:06;31.30;30.29;31.97;;
67318;Laerm;57664;51.436;5.980;2023-08-06T00:40:16;31.31;30.46;32.12;;
67318;Laerm;57664;51.436;5.980;2023-08-06T00:40:30;31.29;30.33;32.28;;
67318;Laerm;57664;51.436;5.980;2023-08-06T00:40:40;31.29;30.46;32.14;;
67318;Laerm;57664;51.436;5.980;2023-08-06T00:40:51;31.31;30.14;32.07;;
67318;Laerm;57664;51.436;5.980;2023-08-06T00:41:01;31.29;30.29;32.07;;
67318;Laerm;57664;51.436;5.980;2023-08-06T00:41:12;31.30;30.17;32.16;;
67318;Laerm;57664;51.436;5.980;2023-08-06T00:41:22;31.29;30.21;32.10;;
67318;Laerm;57664;51.436;5.980;2023-08-06T00:41:33;31.27;30.47;31.99;;
67318;Laerm;57664;51.436;5.980;2023-08-06T00:41:43;31.30;30.30;32.21;;
67318;Laerm;57664;51.436;5.980;2023-08-06T00:41:54;31.26;30.49;32.06;;
67318;Laerm;57664;51.436;5.980;2023-08-06T00:42:04;31.27;30.39;32.35;;
67318;Laerm;57664;51.436;5.980;2023-08-06T00:42:15;31.28;30.37;32.13;;
67318;Laerm;57664;51.436;5.980;2023-08-06T00:42:30;31.32;30.36;32.49;;
67318;Laerm;57664;51.436;5.980;2023-08-06T00:42:41;31.29;30.44;32.03;;
67318;Laerm;57664;51.436;5.980;2023-08-06T00:42:51;31.32;30.43;32.06;;
67318;Laerm;57664;51.436;5.980;2023-08-06T00:43:01;31.32;30.66;32.12;;
67318;Laerm;57664;51.436;5.980;2023-08-06T00:43:12;31.29;30.37;32.10;;
67318;Laerm;57664;51.436;5.980;2023-08-06T00:43:22;31.31;30.52;32.09;;
67318;Laerm;57664;51.436;5.980;2023-08-06T00:43:33;31.27;30.32;32.63;;
67318;Laerm;57664;51.436;5.980;2023-08-06T00:43:43;31.29;30.27;32.15;;
67318;Laerm;57664;51.436;5.980;2023-08-06T00:43:53;31.34;30.46;32.12;;
67318;Laerm;57664;51.436;5.980;2023-08-06T00:44:04;31.28;30.15;32.08;;
67318;Laerm;57664;51.436;5.980;2023-08-06T00:44:14;31.32;30.38;32.24;;
67318;Laerm;57664;51.436;5.980;2023-08-06T00:44:25;31.32;30.41;32.45;;
67318;Laerm;57664;51.436;5.980;2023-08-06T00:44:35;31.28;30.33;32.11;;
67318;Laerm;57664;51.436;5.980;2023-08-06T00:44:46;31.25;30.36;32.06;;
67318;Laerm;57664;51.436;5.980;2023-08-06T00:44:57;31.27;30.49;32.13;;
67318;Laerm;57664;51.436;5.980;2023-08-06T00:45:07;31.28;30.31;32.06;;
67318;Laerm;57664;51.436;5.980;2023-08-06T00:45:18;31.26;30.27;32.07;;
67318;Laerm;57664;51.436;5.980;2023-08-06T00:45:28;31.31;30.36;32.32;;
67318;Laerm;57664;51.436;5.980;2023-08-06T00:45:40;31.27;30.35;32.09;;
67318;Laerm;57664;51.436;5.980;2023-08-06T00:45:50;31.32;30.38;32.08;;
67318;Laerm;57664;51.436;5.980;2023-08-06T00:46:00;31.28;30.46;32.33;;
67318;Laerm;57664;51.436;5.980;2023-08-06T00:46:11;31.29;30.48;32.21;;
67318;Laerm;57664;51.436;5.980;2023-08-06T00:46:22;31.26;30.49;32.05;;
67318;Laerm;57664;51.436;5.980;2023-08-06T00:46:32;31.29;30.35;32.12;;
67318;Laerm;57664;51.436;5.980;2023-08-06T00:46:43;31.29;30.29;32.12;;
67318;Laerm;57664;51.436;5.980;2023-08-06T00:46:55;31.33;30.40;32.28;;
67318;Laerm;57664;51.436;5.980;2023-08-06T00:47:06;31.27;30.32;32.07;;
67318;Laerm;57664;51.436;5.980;2023-08-06T00:47:17;31.29;30.20;32.51;;
67318;Laerm;57664;51.436;5.980;2023-08-06T00:47:28;31.29;30.57;32.24;;
67318;Laerm;57664;51.436;5.980;2023-08-06T00:47:39;31.31;30.60;32.48;;
67318;Laerm;57664;51.436;5.980;2023-08-06T00:47:49;31.27;30.44;32.27;;
67318;Laerm;57664;51.436;5.980;2023-08-06T00:48:00;31.28;30.20;32.24;;
67318;Laerm;57664;51.436;5.980;2023-08-06T00:48:11;31.30;30.41;32.25;;
67318;Laerm;57664;51.436;5.980;2023-08-06T00:48:21;31.29;30.38;32.30;;
67318;Laerm;57664;51.436;5.980;2023-08-06T00:48:32;31.31;30.50;32.41;;
67318;Laerm;57664;51.436;5.980;2023-08-06T00:48:42;31.28;30.25;32.17;;
67318;Laerm;57664;51.436;5.980;2023-08-06T00:48:53;31.28;30.32;32.10;;
67318;Laerm;57664;51.436;5.980;2023-08-06T00:49:05;31.30;30.49;32.29;;
67318;Laerm;57664;51.436;5.980;2023-08-06T00:49:15;31.28;30.30;32.46;;
67318;Laerm;57664;51.436;5.980;2023-08-06T00:49:26;31.32;30.29;32.22;;
67318;Laerm;57664;51.436;5.980;2023-08-06T00:49:36;31.28;30.44;32.24;;
67318;Laerm;57664;51.436;5.980;2023-08-06T00:49:48;31.28;30.56;32.26;;
67318;Laerm;57664;51.436;5.980;2023-08-06T00:49:58;31.29;30.33;32.29;;
67318;Laerm;57664;51.436;5.980;2023-08-06T00:50:10;31.25;30.38;32.07;;
67318;Laerm;57664;51.436;5.980;2023-08-06T00:50:20;31.28;30.47;32.22;;
67318;Laerm;57664;51.436;5.980;2023-08-06T00:50:32;31.28;29.96;32.09;;
67318;Laerm;57664;51.436;5.980;2023-08-06T00:50:43;31.28;30.36;32.08;;
67318;Laerm;57664;51.436;5.980;2023-08-06T00:50:53;31.28;30.44;32.09;;
67318;Laerm;57664;51.436;5.980;2023-08-06T00:51:04;31.29;30.52;32.23;;
67318;Laerm;57664;51.436;5.980;2023-08-06T00:51:14;31.31;30.53;32.05;;
67318;Laerm;57664;51.436;5.980;2023-08-06T00:51:25;31.30;30.21;32.34;;
67318;Laerm;57664;51.436;5.980;2023-08-06T00:51:36;31.25;30.11;32.11;;
67318;Laerm;57664;51.436;5.980;2023-08-06T00:51:47;31.26;30.23;32.17;;
67318;Laerm;57664;51.436;5.980;2023-08-06T00:51:57;31.26;30.28;32.06;;
67318;Laerm;57664;51.436;5.980;2023-08-06T00:52:08;31.29;30.42;32.49;;
67318;Laerm;57664;51.436;5.980;2023-08-06T00:52:19;31.26;30.36;32.05;;
67318;Laerm;57664;51.436;5.980;2023-08-06T00:52:29;31.29;30.47;32.13;;
67318;Laerm;57664;51.436;5.980;2023-08-06T00:52:40;31.29;30.26;32.13;;
67318;Laerm;57664;51.436;5.980;2023-08-06T00:52:50;31.26;30.36;32.33;;
67318;Laerm;57664;51.436;5.980;2023-08-06T00:53:00;31.28;30.46;32.20;;
67318;Laerm;57664;51.436;5.980;2023-08-06T00:53:11;31.24;30.32;32.16;;
67318;Laerm;57664;51.436;5.980;2023-08-06T00:53:21;31.30;30.44;32.49;;
67318;Laerm;57664;51.436;5.980;2023-08-06T00:53:32;31.27;30.46;32.10;;
67318;Laerm;57664;51.436;5.980;2023-08-06T00:53:42;31.27;30.36;32.04;;
67318;Laerm;57664;51.436;5.980;2023-08-06T00:53:53;31.26;29.96;32.22;;
67318;Laerm;57664;51.436;5.980;2023-08-06T00:54:03;31.30;30.42;32.25;;
67318;Laerm;57664;51.436;5.980;2023-08-06T00:54:13;31.30;30.51;32.07;;
67318;Laerm;57664;51.436;5.980;2023-08-06T00:54:24;31.30;30.42;32.09;;
67318;Laerm;57664;51.436;5.980;2023-08-06T00:54:35;31.28;30.31;32.23;;
67318;Laerm;57664;51.436;5.980;2023-08-06T00:54:45;31.29;30.10;32.13;;
67318;Laerm;57664;51.436;5.980;2023-08-06T00:54:56;31.25;30.28;32.41;;
67318;Laerm;57664;51.436;5.980;2023-08-06T00:55:06;31.28;30.51;32.09;;
67318;Laerm;57664;51.436;5.980;2023-08-06T00:55:17;31.30;30.16;32.27;;
67318;Laerm;57664;51.436;5.980;2023-08-06T00:55:27;31.31;30.33;32.18;;
67318;Laerm;57664;51.436;5.980;2023-08-06T00:55:38;31.26;30.21;32.03;;
67318;Laerm;57664;51.436;5.980;2023-08-06T00:55:48;31.25;30.34;32.34;;
67318;Laerm;57664;51.436;5.980;2023-08-06T00:55:59;31.32;30.52;32.13;;
67318;Laerm;57664;51.436;5.980;2023-08-06T00:56:10;31.28;30.34;32.24;;
67318;Laerm;57664;51.436;5.980;2023-08-06T00:56:20;31.28;30.41;32.13;;
67318;Laerm;57664;51.436;5.980;2023-08-06T00:56:30;31.32;30.26;32.09;;
67318;Laerm;57664;51.436;5.980;2023-08-06T00:56:41;31.27;30.48;32.01;;
67318;Laerm;57664;51.436;5.980;2023-08-06T00:56:55;31.25;30.01;32.10;;
67318;Laerm;57664;51.436;5.980;2023-08-06T00:57:06;31.26;30.25;32.13;;
67318;Laerm;57664;51.436;5.980;2023-08-06T00:57:25;31.28;30.35;32.03;;
67318;Laerm;57664;51.436;5.980;2023-08-06T00:57:36;31.29;30.31;32.19;;
67318;Laerm;57664;51.436;5.980;2023-08-06T00:57:46;31.27;30.46;32.18;;
67318;Laerm;57664;51.436;5.980;2023-08-06T00:57:57;31.28;30.19;32.23;;
67318;Laerm;57664;51.436;5.980;2023-08-06T00:58:07;31.28;30.36;32.13;;
67318;Laerm;57664;51.436;5.980;2023-08-06T00:58:18;31.27;30.26;32.03;;
67318;Laerm;57664;51.436;5.980;2023-08-06T00:58:28;31.29;29.82;32.23;;
67318;Laerm;57664;51.436;5.980;2023-08-06T00:58:39;31.27;30.42;32.02;;
67318;Laerm;57664;51.436;5.980;2023-08-06T00:58:49;31.30;30.22;32.16;;
67318;Laerm;57664;51.436;5.980;2023-08-06T00:58:59;31.32;30.43;32.13;;
67318;Laerm;57664;51.436;5.980;2023-08-06T00:59:10;31.29;30.26;32.02;;
67318;Laerm;57664;51.436;5.980;2023-08-06T00:59:21;31.31;30.25;32.46;;
67318;Laerm;57664;51.436;5.980;2023-08-06T00:59:32;31.25;30.36;32.08;;
67318;Laerm;57664;51.436;5.980;2023-08-06T00:59:43;31.29;30.37;32.05;;
67318;Laerm;57664;51.436;5.980;2023-08-06T00:59:53;31.28;30.09;32.21;;
67318;Laerm;57664;51.436;5.980;2023-08-06T01:00:04;31.30;30.51;32.08;;
67318;Laerm;57664;51.436;5.980;2023-08-06T01:00:15;31.28;30.39;31.98;;
67318;Laerm;57664;51.436;5.980;2023-08-06T01:00:25;31.29;30.37;32.34;;
67318;Laerm;57664;51.436;5.980;2023-08-06T01:00:36;31.30;30.31;32.03;;
67318;Laerm;57664;51.436;5.980;2023-08-06T01:00:46;31.29;30.22;32.56;;
67318;Laerm;57664;51.436;5.980;2023-08-06T01:00:56;31.27;30.39;32.16;;
67318;Laerm;57664;51.436;5.980;2023-08-06T01:01:07;31.25;30.54;32.05;;
67318;Laerm;57664;51.436;5.980;2023-08-06T01:01:17;31.30;30.42;32.25;;
67318;Laerm;57664;51.436;5.980;2023-08-06T01:01:27;31.29;30.46;32.12;;
67318;Laerm;57664;51.436;5.980;2023-08-06T01:01:38;31.28;30.38;32.32;;
67318;Laerm;57664;51.436;5.980;2023-08-06T01:01:48;31.32;30.48;32.23;;
67318;Laerm;57664;51.436;5.980;2023-08-06T01:02:00;31.29;30.29;32.26;;
67318;Laerm;57664;51.436;5.980;2023-08-06T01:02:11;31.30;30.45;32.16;;
67318;Laerm;57664;51.436;5.980;2023-08-06T01:02:21;31.29;30.50;32.24;;
67318;Laerm;57664;51.436;5.980;2023-08-06T01:02:34;31.28;30.47;32.09;;
67318;Laerm;57664;51.436;5.980;2023-08-06T01:02:45;31.27;30.36;32.43;;
67318;Laerm;57664;51.436;5.980;2023-08-06T01:02:55;31.28;30.27;32.25;;
67318;Laerm;57664;51.436;5.980;2023-08-06T01:03:06;31.27;30.45;32.22;;